sensor_id;sensor_type;location;lat;lon;timestamp;P1;durP1;ratioP1;P2;durP2;ratioP2
22184;SDS011;11258;52.516;13.318;2022-10-16T00:00:30;2.15;;;1.73;;
22184;SDS011;11258;52.516;13.318;2022-10-16T00:02:56;2.35;;;2.10;;
22184;SDS011;11258;52.516;13.318;2022-10-16T00:05:22;2.95;;;1.83;;
22184;SDS011;11258;52.516;13.318;2022-10-16T00:07:47;2.10;;;1.90;;
22184;SDS011;11258;52.516;13.318;2022-10-16T00:10:13;2.30;;;1.98;;
22184;SDS011;11258;52.516;13.318;2022-10-16T00:12:38;5.00;;;2.30;;
22184;SDS011;11258;52.516;13.318;2022-10-16T00:15:04;3.88;;;1.77;;
22184;SDS011;11258;52.516;13.318;2022-10-16T00:17:30;2.03;;;1.80;;
22184;SDS011;11258;52.516;13.318;2022-10-16T00:19:56;3.80;;;2.28;;
22184;SDS011;11258;52.516;13.318;2022-10-16T00:22:21;3.83;;;1.90;;
22184;SDS011;11258;52.516;13.318;2022-10-16T00:24:47;2.47;;;1.92;;
22184;SDS011;11258;52.516;13.318;2022-10-16T00:27:13;4.13;;;1.90;;
22184;SDS011;11258;52.516;13.318;2022-10-16T00:29:38;2.67;;;1.92;;
22184;SDS011;11258;52.516;13.318;2022-10-16T00:32:04;2.72;;;1.80;;
22184;SDS011;11258;52.516;13.318;2022-10-16T00:34:29;2.92;;;2.00;;
22184;SDS011;11258;52.516;13.318;2022-10-16T00:36:55;1.85;;;1.65;;
22184;SDS011;11258;52.516;13.318;2022-10-16T00:39:20;1.70;;;1.60;;
22184;SDS011;11258;52.516;13.318;2022-10-16T00:41:47;2.15;;;1.88;;
22184;SDS011;11258;52.516;13.318;2022-10-16T00:49:50;2.85;;;2.15;;
22184;SDS011;11258;52.516;13.318;2022-10-16T00:52:18;4.47;;;2.17;;
22184;SDS011;11258;52.516;13.318;2022-10-16T00:54:44;1.77;;;1.67;;
22184;SDS011;11258;52.516;13.318;2022-10-16T00:57:11;2.38;;;1.80;;
22184;SDS011;11258;52.516;13.318;2022-10-16T00:59:38;2.83;;;1.83;;
22184;SDS011;11258;52.516;13.318;2022-10-16T01:02:05;1.85;;;1.60;;
22184;SDS011;11258;52.516;13.318;2022-10-16T01:04:35;1.75;;;1.60;;
22184;SDS011;11258;52.516;13.318;2022-10-16T01:10:14;1.67;;;1.58;;
22184;SDS011;11258;52.516;13.318;2022-10-16T01:12:51;3.85;;;1.67;;
22184;SDS011;11258;52.516;13.318;2022-10-16T01:21:14;2.47;;;1.70;;
22184;SDS011;11258;52.516;13.318;2022-10-16T01:24:08;4.10;;;2.38;;
22184;SDS011;11258;52.516;13.318;2022-10-16T01:26:58;2.03;;;1.80;;
22184;SDS011;11258;52.516;13.318;2022-10-16T01:29:38;3.25;;;1.50;;
22184;SDS011;11258;52.516;13.318;2022-10-16T01:32:11;3.33;;;2.05;;
22184;SDS011;11258;52.516;13.318;2022-10-16T01:35:34;2.72;;;2.13;;
22184;SDS011;11258;52.516;13.318;2022-10-16T01:37:59;2.15;;;1.88;;
22184;SDS011;11258;52.516;13.318;2022-10-16T01:40:30;3.60;;;1.83;;
22184;SDS011;11258;52.516;13.318;2022-10-16T01:43:00;4.68;;;2.13;;
22184;SDS011;11258;52.516;13.318;2022-10-16T01:45:28;2.75;;;2.10;;
22184;SDS011;11258;52.516;13.318;2022-10-16T01:47:56;4.43;;;1.73;;
22184;SDS011;11258;52.516;13.318;2022-10-16T01:50:23;3.35;;;1.70;;
22184;SDS011;11258;52.516;13.318;2022-10-16T01:52:51;3.97;;;1.70;;
22184;SDS011;11258;52.516;13.318;2022-10-16T01:55:20;3.05;;;1.70;;
22184;SDS011;11258;52.516;13.318;2022-10-16T01:57:49;3.53;;;1.70;;
22184;SDS011;11258;52.516;13.318;2022-10-16T02:00:17;3.25;;;1.77;;
22184;SDS011;11258;52.516;13.318;2022-10-16T02:02:46;2.13;;;1.80;;
22184;SDS011;11258;52.516;13.318;2022-10-16T02:05:28;3.10;;;1.70;;
22184;SDS011;11258;52.516;13.318;2022-10-16T02:07:58;2.22;;;1.70;;
22184;SDS011;11258;52.516;13.318;2022-10-16T02:10:23;1.95;;;1.58;;
22184;SDS011;11258;52.516;13.318;2022-10-16T02:12:57;1.60;;;1.48;;
22184;SDS011;11258;52.516;13.318;2022-10-16T02:15:27;4.50;;;1.77;;
22184;SDS011;11258;52.516;13.318;2022-10-16T02:17:52;2.72;;;1.60;;
22184;SDS011;11258;52.516;13.318;2022-10-16T02:20:19;3.15;;;1.70;;
22184;SDS011;11258;52.516;13.318;2022-10-16T02:22:49;3.65;;;2.17;;
22184;SDS011;11258;52.516;13.318;2022-10-16T02:25:27;1.48;;;1.38;;
22184;SDS011;11258;52.516;13.318;2022-10-16T02:28:10;2.15;;;1.70;;
22184;SDS011;11258;52.516;13.318;2022-10-16T02:30:39;1.48;;;1.38;;
22184;SDS011;11258;52.516;13.318;2022-10-16T02:33:19;3.80;;;1.40;;
22184;SDS011;11258;52.516;13.318;2022-10-16T02:35:48;2.78;;;1.60;;
22184;SDS011;11258;52.516;13.318;2022-10-16T02:38:16;1.83;;;1.65;;
22184;SDS011;11258;52.516;13.318;2022-10-16T02:40:43;2.47;;;2.05;;
22184;SDS011;11258;52.516;13.318;2022-10-16T02:43:09;4.00;;;1.73;;
22184;SDS011;11258;52.516;13.318;2022-10-16T02:45:35;2.30;;;1.67;;
22184;SDS011;11258;52.516;13.318;2022-10-16T02:48:01;1.65;;;1.42;;
22184;SDS011;11258;52.516;13.318;2022-10-16T02:50:26;2.10;;;1.70;;
22184;SDS011;11258;52.516;13.318;2022-10-16T02:52:52;2.00;;;1.67;;
22184;SDS011;11258;52.516;13.318;2022-10-16T02:55:18;1.67;;;1.50;;
22184;SDS011;11258;52.516;13.318;2022-10-16T02:57:43;2.13;;;1.40;;
22184;SDS011;11258;52.516;13.318;2022-10-16T03:00:09;2.00;;;1.77;;
22184;SDS011;11258;52.516;13.318;2022-10-16T03:02:38;1.80;;;1.63;;
22184;SDS011;11258;52.516;13.318;2022-10-16T03:05:04;4.05;;;1.58;;
22184;SDS011;11258;52.516;13.318;2022-10-16T03:07:29;2.25;;;1.55;;
22184;SDS011;11258;52.516;13.318;2022-10-16T03:09:55;1.98;;;1.80;;
22184;SDS011;11258;52.516;13.318;2022-10-16T03:12:21;2.88;;;1.60;;
22184;SDS011;11258;52.516;13.318;2022-10-16T03:14:47;2.05;;;1.73;;
22184;SDS011;11258;52.516;13.318;2022-10-16T03:17:13;2.42;;;1.83;;
22184;SDS011;11258;52.516;13.318;2022-10-16T03:19:39;2.88;;;2.00;;
22184;SDS011;11258;52.516;13.318;2022-10-16T03:22:04;4.35;;;1.80;;
22184;SDS011;11258;52.516;13.318;2022-10-16T03:24:30;2.20;;;1.70;;
22184;SDS011;11258;52.516;13.318;2022-10-16T03:26:55;3.58;;;1.80;;
22184;SDS011;11258;52.516;13.318;2022-10-16T03:29:21;3.75;;;2.10;;
22184;SDS011;11258;52.516;13.318;2022-10-16T03:31:46;2.20;;;1.77;;
22184;SDS011;11258;52.516;13.318;2022-10-16T03:34:14;2.70;;;1.90;;
22184;SDS011;11258;52.516;13.318;2022-10-16T03:36:40;1.90;;;1.70;;
22184;SDS011;11258;52.516;13.318;2022-10-16T03:39:05;2.38;;;1.50;;
22184;SDS011;11258;52.516;13.318;2022-10-16T03:41:31;2.47;;;2.03;;
22184;SDS011;11258;52.516;13.318;2022-10-16T03:43:56;4.43;;;1.80;;
22184;SDS011;11258;52.516;13.318;2022-10-16T03:46:22;2.15;;;1.73;;
22184;SDS011;11258;52.516;13.318;2022-10-16T03:48:47;4.43;;;1.98;;
22184;SDS011;11258;52.516;13.318;2022-10-16T03:51:13;1.92;;;1.70;;
22184;SDS011;11258;52.516;13.318;2022-10-16T03:53:38;2.17;;;1.60;;
22184;SDS011;11258;52.516;13.318;2022-10-16T03:56:04;2.42;;;2.20;;
22184;SDS011;11258;52.516;13.318;2022-10-16T03:58:30;3.53;;;2.00;;
22184;SDS011;11258;52.516;13.318;2022-10-16T04:00:55;2.47;;;1.70;;
22184;SDS011;11258;52.516;13.318;2022-10-16T04:03:21;2.20;;;1.92;;
22184;SDS011;11258;52.516;13.318;2022-10-16T04:05:47;1.90;;;1.70;;
22184;SDS011;11258;52.516;13.318;2022-10-16T04:08:13;2.55;;;2.05;;
22184;SDS011;11258;52.516;13.318;2022-10-16T04:10:39;2.17;;;1.77;;
22184;SDS011;11258;52.516;13.318;2022-10-16T04:13:04;2.97;;;1.73;;
22184;SDS011;11258;52.516;13.318;2022-10-16T04:15:30;3.00;;;1.67;;
22184;SDS011;11258;52.516;13.318;2022-10-16T04:17:55;1.88;;;1.58;;
22184;SDS011;11258;52.516;13.318;2022-10-16T04:20:21;2.15;;;1.95;;
22184;SDS011;11258;52.516;13.318;2022-10-16T04:22:46;3.17;;;2.03;;
22184;SDS011;11258;52.516;13.318;2022-10-16T04:25:12;3.30;;;2.10;;
22184;SDS011;11258;52.516;13.318;2022-10-16T04:27:38;2.22;;;1.95;;
22184;SDS011;11258;52.516;13.318;2022-10-16T04:30:04;2.17;;;1.88;;
22184;SDS011;11258;52.516;13.318;2022-10-16T04:32:30;2.08;;;1.45;;
22184;SDS011;11258;52.516;13.318;2022-10-16T04:34:55;3.15;;;2.17;;
22184;SDS011;11258;52.516;13.318;2022-10-16T04:37:24;2.95;;;1.73;;
22184;SDS011;11258;52.516;13.318;2022-10-16T04:39:50;1.95;;;1.77;;
22184;SDS011;11258;52.516;13.318;2022-10-16T04:42:16;2.45;;;1.95;;
22184;SDS011;11258;52.516;13.318;2022-10-16T04:44:42;2.00;;;1.80;;
22184;SDS011;11258;52.516;13.318;2022-10-16T04:47:08;1.77;;;1.58;;
22184;SDS011;11258;52.516;13.318;2022-10-16T04:49:34;2.50;;;2.10;;
22184;SDS011;11258;52.516;13.318;2022-10-16T04:51:59;2.83;;;1.80;;
22184;SDS011;11258;52.516;13.318;2022-10-16T04:54:25;1.52;;;1.42;;
22184;SDS011;11258;52.516;13.318;2022-10-16T04:56:50;3.83;;;2.10;;
22184;SDS011;11258;52.516;13.318;2022-10-16T04:59:17;1.70;;;1.60;;
22184;SDS011;11258;52.516;13.318;2022-10-16T05:01:44;2.05;;;1.85;;
22184;SDS011;11258;52.516;13.318;2022-10-16T05:04:10;2.10;;;1.90;;
22184;SDS011;11258;52.516;13.318;2022-10-16T05:06:36;1.95;;;1.77;;
22184;SDS011;11258;52.516;13.318;2022-10-16T05:09:03;2.33;;;2.00;;
22184;SDS011;11258;52.516;13.318;2022-10-16T05:11:29;2.40;;;1.90;;
22184;SDS011;11258;52.516;13.318;2022-10-16T05:13:55;2.40;;;1.83;;
22184;SDS011;11258;52.516;13.318;2022-10-16T05:16:21;3.08;;;2.20;;
22184;SDS011;11258;52.516;13.318;2022-10-16T05:18:46;2.17;;;1.67;;
22184;SDS011;11258;52.516;13.318;2022-10-16T05:21:12;2.22;;;1.70;;
22184;SDS011;11258;52.516;13.318;2022-10-16T05:23:38;2.92;;;1.83;;
22184;SDS011;11258;52.516;13.318;2022-10-16T05:26:03;1.58;;;1.48;;
22184;SDS011;11258;52.516;13.318;2022-10-16T05:28:29;1.73;;;1.63;;
22184;SDS011;11258;52.516;13.318;2022-10-16T05:30:55;2.80;;;1.88;;
22184;SDS011;11258;52.516;13.318;2022-10-16T05:33:22;2.55;;;1.90;;
22184;SDS011;11258;52.516;13.318;2022-10-16T05:35:50;5.00;;;2.33;;
22184;SDS011;11258;52.516;13.318;2022-10-16T05:38:16;2.28;;;1.95;;
22184;SDS011;11258;52.516;13.318;2022-10-16T05:40:42;3.40;;;2.25;;
22184;SDS011;11258;52.516;13.318;2022-10-16T05:43:08;2.58;;;1.80;;
22184;SDS011;11258;52.516;13.318;2022-10-16T05:45:33;2.13;;;1.70;;
22184;SDS011;11258;52.516;13.318;2022-10-16T05:47:59;2.55;;;1.92;;
22184;SDS011;11258;52.516;13.318;2022-10-16T05:50:25;2.47;;;1.88;;
22184;SDS011;11258;52.516;13.318;2022-10-16T05:52:51;2.60;;;2.20;;
22184;SDS011;11258;52.516;13.318;2022-10-16T05:55:17;1.52;;;1.42;;
22184;SDS011;11258;52.516;13.318;2022-10-16T05:57:42;2.03;;;1.70;;
22184;SDS011;11258;52.516;13.318;2022-10-16T06:00:08;2.22;;;1.73;;
22184;SDS011;11258;52.516;13.318;2022-10-16T06:02:34;2.92;;;1.80;;
22184;SDS011;11258;52.516;13.318;2022-10-16T06:05:00;1.90;;;1.80;;
22184;SDS011;11258;52.516;13.318;2022-10-16T06:07:25;2.00;;;1.83;;
22184;SDS011;11258;52.516;13.318;2022-10-16T06:09:51;3.20;;;1.85;;
22184;SDS011;11258;52.516;13.318;2022-10-16T06:12:17;4.07;;;1.73;;
22184;SDS011;11258;52.516;13.318;2022-10-16T06:14:44;1.73;;;1.58;;
22184;SDS011;11258;52.516;13.318;2022-10-16T06:17:11;4.38;;;2.03;;
22184;SDS011;11258;52.516;13.318;2022-10-16T06:19:37;1.92;;;1.67;;
22184;SDS011;11258;52.516;13.318;2022-10-16T06:22:03;3.40;;;2.03;;
22184;SDS011;11258;52.516;13.318;2022-10-16T06:24:29;2.10;;;1.90;;
22184;SDS011;11258;52.516;13.318;2022-10-16T06:26:54;6.28;;;1.95;;
22184;SDS011;11258;52.516;13.318;2022-10-16T06:29:20;2.92;;;2.00;;
22184;SDS011;11258;52.516;13.318;2022-10-16T06:31:46;2.10;;;1.90;;
22184;SDS011;11258;52.516;13.318;2022-10-16T06:34:11;3.13;;;2.25;;
22184;SDS011;11258;52.516;13.318;2022-10-16T06:36:37;2.38;;;2.13;;
22184;SDS011;11258;52.516;13.318;2022-10-16T06:39:03;2.08;;;1.85;;
22184;SDS011;11258;52.516;13.318;2022-10-16T06:41:30;3.20;;;2.60;;
22184;SDS011;11258;52.516;13.318;2022-10-16T06:43:56;2.63;;;2.42;;
22184;SDS011;11258;52.516;13.318;2022-10-16T06:46:22;4.82;;;2.50;;
22184;SDS011;11258;52.516;13.318;2022-10-16T06:48:49;3.42;;;2.05;;
22184;SDS011;11258;52.516;13.318;2022-10-16T06:51:15;2.22;;;2.03;;
22184;SDS011;11258;52.516;13.318;2022-10-16T06:53:43;2.88;;;2.10;;
22184;SDS011;11258;52.516;13.318;2022-10-16T06:56:15;3.85;;;2.13;;
22184;SDS011;11258;52.516;13.318;2022-10-16T06:58:42;4.82;;;2.63;;
22184;SDS011;11258;52.516;13.318;2022-10-16T07:01:09;3.78;;;2.03;;
22184;SDS011;11258;52.516;13.318;2022-10-16T07:03:39;2.25;;;1.92;;
22184;SDS011;11258;52.516;13.318;2022-10-16T07:06:06;2.47;;;2.10;;
22184;SDS011;11258;52.516;13.318;2022-10-16T07:08:34;3.58;;;3.08;;
22184;SDS011;11258;52.516;13.318;2022-10-16T07:11:02;2.38;;;1.92;;
22184;SDS011;11258;52.516;13.318;2022-10-16T07:13:38;4.85;;;2.63;;
22184;SDS011;11258;52.516;13.318;2022-10-16T07:18:31;2.17;;;1.70;;
22184;SDS011;11258;52.516;13.318;2022-10-16T07:21:02;2.58;;;2.03;;
22184;SDS011;11258;52.516;13.318;2022-10-16T07:23:32;2.28;;;1.95;;
22184;SDS011;11258;52.516;13.318;2022-10-16T07:25:58;2.53;;;1.48;;
22184;SDS011;11258;52.516;13.318;2022-10-16T07:28:24;2.42;;;2.22;;
22184;SDS011;11258;52.516;13.318;2022-10-16T07:30:50;3.72;;;2.25;;
22184;SDS011;11258;52.516;13.318;2022-10-16T07:33:15;1.60;;;1.50;;
22184;SDS011;11258;52.516;13.318;2022-10-16T07:35:48;1.70;;;1.60;;
22184;SDS011;11258;52.516;13.318;2022-10-16T07:38:17;3.00;;;1.80;;
22184;SDS011;11258;52.516;13.318;2022-10-16T07:40:44;1.70;;;1.60;;
22184;SDS011;11258;52.516;13.318;2022-10-16T07:43:10;2.97;;;1.92;;
22184;SDS011;11258;52.516;13.318;2022-10-16T07:45:36;5.00;;;1.80;;
22184;SDS011;11258;52.516;13.318;2022-10-16T07:48:01;4.90;;;3.30;;
22184;SDS011;11258;52.516;13.318;2022-10-16T07:50:27;2.22;;;1.67;;
22184;SDS011;11258;52.516;13.318;2022-10-16T07:52:53;1.55;;;1.38;;
22184;SDS011;11258;52.516;13.318;2022-10-16T07:55:18;2.03;;;1.70;;
22184;SDS011;11258;52.516;13.318;2022-10-16T07:57:44;2.78;;;1.50;;
22184;SDS011;11258;52.516;13.318;2022-10-16T08:00:09;3.33;;;1.70;;
22184;SDS011;11258;52.516;13.318;2022-10-16T08:02:41;2.30;;;1.45;;
22184;SDS011;11258;52.516;13.318;2022-10-16T08:05:07;2.17;;;1.50;;
22184;SDS011;11258;52.516;13.318;2022-10-16T08:07:33;3.72;;;1.70;;
22184;SDS011;11258;52.516;13.318;2022-10-16T08:09:58;2.08;;;1.88;;
22184;SDS011;11258;52.516;13.318;2022-10-16T08:12:27;1.77;;;1.30;;
22184;SDS011;11258;52.516;13.318;2022-10-16T08:14:53;5.85;;;1.88;;
22184;SDS011;11258;52.516;13.318;2022-10-16T08:17:18;1.65;;;1.48;;
22184;SDS011;11258;52.516;13.318;2022-10-16T08:19:44;1.30;;;1.20;;
22184;SDS011;11258;52.516;13.318;2022-10-16T08:22:11;3.35;;;1.60;;
22184;SDS011;11258;52.516;13.318;2022-10-16T08:24:36;4.63;;;1.98;;
22184;SDS011;11258;52.516;13.318;2022-10-16T08:27:02;2.97;;;1.58;;
22184;SDS011;11258;52.516;13.318;2022-10-16T08:29:28;1.58;;;1.42;;
22184;SDS011;11258;52.516;13.318;2022-10-16T08:31:53;2.83;;;1.10;;
22184;SDS011;11258;52.516;13.318;2022-10-16T08:34:19;2.03;;;1.52;;
22184;SDS011;11258;52.516;13.318;2022-10-16T08:36:44;3.17;;;1.40;;
22184;SDS011;11258;52.516;13.318;2022-10-16T08:39:10;1.67;;;1.30;;
22184;SDS011;11258;52.516;13.318;2022-10-16T08:47:02;1.45;;;1.35;;
22184;SDS011;11258;52.516;13.318;2022-10-16T08:49:56;1.92;;;1.27;;
22184;SDS011;11258;52.516;13.318;2022-10-16T08:52:25;2.13;;;1.17;;
22184;SDS011;11258;52.516;13.318;2022-10-16T08:54:57;2.78;;;1.30;;
22184;SDS011;11258;52.516;13.318;2022-10-16T08:57:24;4.45;;;1.75;;
22184;SDS011;11258;52.516;13.318;2022-10-16T08:59:55;4.05;;;2.53;;
22184;SDS011;11258;52.516;13.318;2022-10-16T09:02:32;7.95;;;3.97;;
22184;SDS011;11258;52.516;13.318;2022-10-16T09:05:21;6.55;;;4.22;;
22184;SDS011;11258;52.516;13.318;2022-10-16T09:13:31;2.60;;;1.48;;
22184;SDS011;11258;52.516;13.318;2022-10-16T09:19:09;4.63;;;1.35;;
22184;SDS011;11258;52.516;13.318;2022-10-16T09:21:46;1.77;;;1.50;;
22184;SDS011;11258;52.516;13.318;2022-10-16T09:24:31;2.47;;;1.90;;
22184;SDS011;11258;52.516;13.318;2022-10-16T09:26:56;2.85;;;1.40;;
22184;SDS011;11258;52.516;13.318;2022-10-16T09:29:22;2.17;;;1.00;;
22184;SDS011;11258;52.516;13.318;2022-10-16T09:31:49;2.97;;;1.13;;
22184;SDS011;11258;52.516;13.318;2022-10-16T09:36:55;1.50;;;1.40;;
22184;SDS011;11258;52.516;13.318;2022-10-16T09:39:23;1.15;;;1.05;;
22184;SDS011;11258;52.516;13.318;2022-10-16T09:41:49;3.80;;;1.92;;
22184;SDS011;11258;52.516;13.318;2022-10-16T09:44:25;3.33;;;2.38;;
22184;SDS011;11258;52.516;13.318;2022-10-16T09:49:29;2.47;;;1.75;;
22184;SDS011;11258;52.516;13.318;2022-10-16T09:52:13;1.95;;;1.00;;
22184;SDS011;11258;52.516;13.318;2022-10-16T09:57:48;3.97;;;1.77;;
22184;SDS011;11258;52.516;13.318;2022-10-16T10:00:18;1.55;;;1.30;;
22184;SDS011;11258;52.516;13.318;2022-10-16T10:02:44;4.43;;;1.10;;
22184;SDS011;11258;52.516;13.318;2022-10-16T10:05:17;2.45;;;1.15;;
22184;SDS011;11258;52.516;13.318;2022-10-16T10:07:54;1.10;;;1.00;;
22184;SDS011;11258;52.516;13.318;2022-10-16T10:10:25;1.73;;;0.88;;
22184;SDS011;11258;52.516;13.318;2022-10-16T10:12:53;2.90;;;1.25;;
22184;SDS011;11258;52.516;13.318;2022-10-16T10:15:21;3.97;;;1.52;;
22184;SDS011;11258;52.516;13.318;2022-10-16T10:17:52;1.80;;;1.23;;
22184;SDS011;11258;52.516;13.318;2022-10-16T10:23:22;1.70;;;1.23;;
22184;SDS011;11258;52.516;13.318;2022-10-16T10:34:24;1.38;;;1.10;;
22184;SDS011;11258;52.516;13.318;2022-10-16T10:42:40;1.95;;;1.55;;
22184;SDS011;11258;52.516;13.318;2022-10-16T10:45:22;5.53;;;2.85;;
22184;SDS011;11258;52.516;13.318;2022-10-16T10:50:43;1.50;;;1.00;;
22184;SDS011;11258;52.516;13.318;2022-10-16T11:01:40;1.08;;;0.80;;
22184;SDS011;11258;52.516;13.318;2022-10-16T11:04:32;1.73;;;0.90;;
22184;SDS011;11258;52.516;13.318;2022-10-16T11:07:15;1.60;;;0.90;;
22184;SDS011;11258;52.516;13.318;2022-10-16T11:09:47;1.05;;;0.88;;
22184;SDS011;11258;52.516;13.318;2022-10-16T11:12:25;2.75;;;1.13;;
22184;SDS011;11258;52.516;13.318;2022-10-16T11:17:52;3.95;;;1.58;;
22184;SDS011;11258;52.516;13.318;2022-10-16T11:20:32;2.88;;;1.05;;
22184;SDS011;11258;52.516;13.318;2022-10-16T11:23:08;2.38;;;0.88;;
22184;SDS011;11258;52.516;13.318;2022-10-16T11:25:50;0.95;;;0.75;;
22184;SDS011;11258;52.516;13.318;2022-10-16T11:28:18;0.85;;;0.70;;
22184;SDS011;11258;52.516;13.318;2022-10-16T11:31:00;2.05;;;0.88;;
22184;SDS011;11258;52.516;13.318;2022-10-16T11:33:37;1.10;;;0.80;;
22184;SDS011;11258;52.516;13.318;2022-10-16T11:39:17;1.65;;;1.08;;
22184;SDS011;11258;52.516;13.318;2022-10-16T11:41:50;2.05;;;0.85;;
22184;SDS011;11258;52.516;13.318;2022-10-16T11:49:49;3.13;;;1.10;;
22184;SDS011;11258;52.516;13.318;2022-10-16T11:52:36;2.20;;;0.90;;
22184;SDS011;11258;52.516;13.318;2022-10-16T11:57:33;3.30;;;0.95;;
22184;SDS011;11258;52.516;13.318;2022-10-16T12:00:05;0.77;;;0.60;;
22184;SDS011;11258;52.516;13.318;2022-10-16T12:08:22;0.85;;;0.77;;
22184;SDS011;11258;52.516;13.318;2022-10-16T12:10:48;1.25;;;0.70;;
22184;SDS011;11258;52.516;13.318;2022-10-16T12:18:42;2.17;;;1.30;;
22184;SDS011;11258;52.516;13.318;2022-10-16T12:21:09;0.77;;;0.75;;
22184;SDS011;11258;52.516;13.318;2022-10-16T12:23:39;1.35;;;0.82;;
22184;SDS011;11258;52.516;13.318;2022-10-16T12:26:13;1.55;;;0.93;;
22184;SDS011;11258;52.516;13.318;2022-10-16T12:28:39;0.88;;;0.73;;
22184;SDS011;11258;52.516;13.318;2022-10-16T12:31:06;1.20;;;0.80;;
22184;SDS011;11258;52.516;13.318;2022-10-16T12:33:41;3.40;;;0.80;;
22184;SDS011;11258;52.516;13.318;2022-10-16T12:36:34;0.90;;;0.70;;
22184;SDS011;11258;52.516;13.318;2022-10-16T12:39:00;0.82;;;0.68;;
22184;SDS011;11258;52.516;13.318;2022-10-16T12:41:34;1.92;;;0.88;;
22184;SDS011;11258;52.516;13.318;2022-10-16T12:44:01;0.60;;;0.60;;
22184;SDS011;11258;52.516;13.318;2022-10-16T12:49:05;3.78;;;1.00;;
22184;SDS011;11258;52.516;13.318;2022-10-16T13:10:41;3.03;;;0.80;;
22184;SDS011;11258;52.516;13.318;2022-10-16T13:27:07;1.42;;;0.70;;
22184;SDS011;11258;52.516;13.318;2022-10-16T13:29:34;1.85;;;1.15;;
22184;SDS011;11258;52.516;13.318;2022-10-16T13:32:00;2.20;;;0.70;;
22184;SDS011;11258;52.516;13.318;2022-10-16T13:34:31;2.30;;;0.60;;
22184;SDS011;11258;52.516;13.318;2022-10-16T13:36:57;1.25;;;0.73;;
22184;SDS011;11258;52.516;13.318;2022-10-16T13:39:24;1.23;;;0.50;;
22184;SDS011;11258;52.516;13.318;2022-10-16T13:44:27;2.92;;;0.82;;
22184;SDS011;11258;52.516;13.318;2022-10-16T13:47:00;1.30;;;0.50;;
22184;SDS011;11258;52.516;13.318;2022-10-16T13:49:27;0.85;;;0.60;;
22184;SDS011;11258;52.516;13.318;2022-10-16T13:51:56;1.95;;;0.70;;
22184;SDS011;11258;52.516;13.318;2022-10-16T13:54:26;1.38;;;0.60;;
22184;SDS011;11258;52.516;13.318;2022-10-16T13:56:53;0.85;;;0.60;;
22184;SDS011;11258;52.516;13.318;2022-10-16T13:59:26;1.23;;;0.90;;
22184;SDS011;11258;52.516;13.318;2022-10-16T14:02:00;0.73;;;0.73;;
22184;SDS011;11258;52.516;13.318;2022-10-16T14:04:50;1.50;;;0.70;;
22184;SDS011;11258;52.516;13.318;2022-10-16T14:07:19;2.00;;;1.30;;
22184;SDS011;11258;52.516;13.318;2022-10-16T14:09:53;1.00;;;0.77;;
22184;SDS011;11258;52.516;13.318;2022-10-16T14:12:19;1.95;;;0.57;;
22184;SDS011;11258;52.516;13.318;2022-10-16T14:14:46;1.38;;;0.52;;
22184;SDS011;11258;52.516;13.318;2022-10-16T14:17:24;1.00;;;0.65;;
22184;SDS011;11258;52.516;13.318;2022-10-16T14:19:53;0.90;;;0.80;;
22184;SDS011;11258;52.516;13.318;2022-10-16T14:22:27;0.90;;;0.70;;
22184;SDS011;11258;52.516;13.318;2022-10-16T14:24:56;1.17;;;0.70;;
22184;SDS011;11258;52.516;13.318;2022-10-16T14:27:35;0.82;;;0.50;;
22184;SDS011;11258;52.516;13.318;2022-10-16T14:30:10;2.88;;;1.35;;
22184;SDS011;11258;52.516;13.318;2022-10-16T14:32:40;1.02;;;0.93;;
22184;SDS011;11258;52.516;13.318;2022-10-16T14:35:21;0.95;;;0.70;;
22184;SDS011;11258;52.516;13.318;2022-10-16T14:38:02;1.38;;;0.80;;
22184;SDS011;11258;52.516;13.318;2022-10-16T14:40:33;1.50;;;0.90;;
22184;SDS011;11258;52.516;13.318;2022-10-16T14:43:01;2.45;;;1.00;;
22184;SDS011;11258;52.516;13.318;2022-10-16T14:45:30;0.93;;;0.63;;
22184;SDS011;11258;52.516;13.318;2022-10-16T14:47:58;1.10;;;0.50;;
22184;SDS011;11258;52.516;13.318;2022-10-16T14:50:26;1.02;;;0.70;;
22184;SDS011;11258;52.516;13.318;2022-10-16T14:52:52;1.42;;;0.90;;
22184;SDS011;11258;52.516;13.318;2022-10-16T14:55:18;1.08;;;0.88;;
22184;SDS011;11258;52.516;13.318;2022-10-16T14:57:44;1.13;;;1.02;;
22184;SDS011;11258;52.516;13.318;2022-10-16T15:00:43;0.60;;;0.60;;
22184;SDS011;11258;52.516;13.318;2022-10-16T15:03:02;1.98;;;1.02;;
22184;SDS011;11258;52.516;13.318;2022-10-16T15:05:27;1.55;;;0.90;;
22184;SDS011;11258;52.516;13.318;2022-10-16T15:07:54;2.45;;;1.20;;
22184;SDS011;11258;52.516;13.318;2022-10-16T15:10:20;2.13;;;1.35;;
22184;SDS011;11258;52.516;13.318;2022-10-16T15:12:48;0.90;;;0.77;;
22184;SDS011;11258;52.516;13.318;2022-10-16T15:17:51;2.28;;;0.85;;
22184;SDS011;11258;52.516;13.318;2022-10-16T15:20:22;1.20;;;0.93;;
22184;SDS011;11258;52.516;13.318;2022-10-16T15:22:49;1.75;;;0.77;;
22184;SDS011;11258;52.516;13.318;2022-10-16T15:27:52;2.45;;;0.77;;
22184;SDS011;11258;52.516;13.318;2022-10-16T15:30:17;2.72;;;0.90;;
22184;SDS011;11258;52.516;13.318;2022-10-16T15:32:43;2.05;;;0.85;;
22184;SDS011;11258;52.516;13.318;2022-10-16T15:35:08;2.22;;;1.30;;
22184;SDS011;11258;52.516;13.318;2022-10-16T15:37:34;2.60;;;1.00;;
22184;SDS011;11258;52.516;13.318;2022-10-16T15:39:59;3.10;;;1.85;;
22184;SDS011;11258;52.516;13.318;2022-10-16T15:42:25;4.03;;;1.33;;
22184;SDS011;11258;52.516;13.318;2022-10-16T15:44:51;2.55;;;1.38;;
22184;SDS011;11258;52.516;13.318;2022-10-16T15:47:16;2.50;;;1.33;;
22184;SDS011;11258;52.516;13.318;2022-10-16T15:49:42;2.80;;;1.25;;
22184;SDS011;11258;52.516;13.318;2022-10-16T15:52:07;2.88;;;1.80;;
22184;SDS011;11258;52.516;13.318;2022-10-16T15:54:33;3.47;;;1.98;;
22184;SDS011;11258;52.516;13.318;2022-10-16T15:56:58;2.78;;;1.48;;
22184;SDS011;11258;52.516;13.318;2022-10-16T15:59:24;9.73;;;4.40;;
22184;SDS011;11258;52.516;13.318;2022-10-16T16:01:49;3.20;;;1.95;;
22184;SDS011;11258;52.516;13.318;2022-10-16T16:04:15;3.90;;;2.22;;
22184;SDS011;11258;52.516;13.318;2022-10-16T16:06:41;6.53;;;4.53;;
22184;SDS011;11258;52.516;13.318;2022-10-16T16:09:09;8.80;;;4.30;;
22184;SDS011;11258;52.516;13.318;2022-10-16T16:11:36;6.95;;;3.20;;
22184;SDS011;11258;52.516;13.318;2022-10-16T16:14:03;3.83;;;2.65;;
22184;SDS011;11258;52.516;13.318;2022-10-16T16:16:32;8.45;;;2.83;;
22184;SDS011;11258;52.516;13.318;2022-10-16T16:19:03;7.25;;;4.20;;
22184;SDS011;11258;52.516;13.318;2022-10-16T16:21:30;4.38;;;2.40;;
22184;SDS011;11258;52.516;13.318;2022-10-16T16:23:57;6.57;;;2.88;;
22184;SDS011;11258;52.516;13.318;2022-10-16T16:26:23;8.30;;;3.20;;
22184;SDS011;11258;52.516;13.318;2022-10-16T16:28:51;6.32;;;3.55;;
22184;SDS011;11258;52.516;13.318;2022-10-16T16:31:17;3.60;;;2.65;;
22184;SDS011;11258;52.516;13.318;2022-10-16T16:33:43;7.55;;;3.80;;
22184;SDS011;11258;52.516;13.318;2022-10-16T16:36:08;3.83;;;2.72;;
22184;SDS011;11258;52.516;13.318;2022-10-16T16:38:34;9.02;;;4.18;;
22184;SDS011;11258;52.516;13.318;2022-10-16T16:41:10;6.03;;;3.45;;
22184;SDS011;11258;52.516;13.318;2022-10-16T16:43:42;7.95;;;5.82;;
22184;SDS011;11258;52.516;13.318;2022-10-16T16:46:08;2.85;;;2.25;;
22184;SDS011;11258;52.516;13.318;2022-10-16T16:48:34;6.60;;;2.70;;
22184;SDS011;11258;52.516;13.318;2022-10-16T16:51:06;6.30;;;2.70;;
22184;SDS011;11258;52.516;13.318;2022-10-16T16:53:34;4.65;;;2.78;;
22184;SDS011;11258;52.516;13.318;2022-10-16T16:56:04;6.88;;;4.95;;
22184;SDS011;11258;52.516;13.318;2022-10-16T16:58:30;6.75;;;4.00;;